Time;durP1;ratioP1;P1;durP2;ratioP2;P2;SDS_P1;SDS_P2;PMS_P1;PMS_P2;Temp;Humidity;BMP_temperature;BMP_pressure;BME280_temperature;BME280_humidity;BME280_pressure;Samples;Min_cycle;Max_cycle;Signal;HPM_P1;HPM_P2
2022/05/13 00:01:57;;;;;;;3.70;2.43;;;;;;;14.08;73.08;100290.03;5072186;28;20219;-62
2022/05/13 00:04:22;;;;;;;4.57;2.53;;;;;;;14.01;73.39;100291.34;5054347;28;20181;-62
2022/05/13 00:06:47;;;;;;;4.23;2.20;;;;;;;13.98;73.69;100282.03;5055092;28;20208;-61
2022/05/13 00:09:13;;;;;;;2.43;1.80;;;;;;;13.96;73.48;100283.88;5070719;28;20177;-62
2022/05/13 00:11:39;;;;;;;5.00;2.37;;;;;;;13.97;73.55;100288.13;5070764;28;20722;-62
2022/05/13 00:14:06;;;;;;;4.50;2.10;;;;;;;13.87;73.71;100285.31;5061381;28;20206;-61
2022/05/13 00:16:35;;;;;;;3.43;2.23;;;;;;;13.82;73.88;100287.38;5054798;28;20316;-62
2022/05/13 00:19:01;;;;;;;3.10;2.23;;;;;;;13.73;74.20;100280.25;5054904;28;20178;-60
2022/05/13 00:21:26;;;;;;;3.17;2.07;;;;;;;13.75;74.38;100278.38;5055399;28;20289;-64
2022/05/13 00:23:51;;;;;;;3.27;2.07;;;;;;;13.64;75.07;100275.66;5060538;28;20184;-62
2022/05/13 00:26:16;;;;;;;4.83;3.20;;;;;;;13.67;75.18;100280.66;5053383;28;20208;-61
2022/05/13 00:28:42;;;;;;;6.50;2.30;;;;;;;13.67;75.49;100289.22;5055038;28;20682;-61
2022/05/13 00:31:07;;;;;;;4.63;2.07;;;;;;;13.75;74.91;100283.53;5053613;28;20232;-62
2022/05/13 00:33:33;;;;;;;3.07;1.87;;;;;;;13.45;76.80;100282.00;5069971;28;20226;-62
2022/05/13 00:35:59;;;;;;;3.10;2.07;;;;;;;13.27;78.78;100270.22;5050196;28;20226;-63
2022/05/13 00:38:25;;;;;;;3.13;2.37;;;;;;;13.18;80.50;100281.97;5050341;28;20209;-63
2022/05/13 00:40:51;;;;;;;6.67;2.30;;;;;;;13.27;80.44;100283.13;5037130;28;20235;-62
2022/05/13 00:43:47;;;;;;;5.70;3.03;;;;;;;13.17;80.12;100280.31;5054505;28;20170;-62
2022/05/13 00:46:13;;;;;;;5.57;2.30;;;;;;;13.22;80.14;100289.44;5034323;28;20194;-61
2022/05/13 00:48:39;;;;;;;3.03;2.30;;;;;;;13.17;80.70;100275.13;5035011;28;20300;-62
2022/05/13 00:51:06;;;;;;;5.60;2.23;;;;;;;13.07;81.96;100282.63;5034668;28;20300;-62
2022/05/13 00:53:33;;;;;;;5.70;2.70;;;;;;;13.04;81.78;100283.66;5037489;28;20178;-62
2022/05/13 00:56:00;;;;;;;5.30;2.23;;;;;;;12.91;82.66;100283.59;5033181;28;20215;-63
2022/05/13 00:58:26;;;;;;;2.30;2.10;;;;;;;12.91;83.25;100288.75;5049638;28;20188;-62
2022/05/13 01:00:52;;;;;;;3.53;2.10;;;;;;;12.86;83.31;100287.34;5030719;28;20225;-62
2022/05/13 01:03:17;;;;;;;3.77;2.27;;;;;;;12.79;83.15;100281.75;5033467;28;20245;-61
2022/05/13 01:05:47;;;;;;;3.77;2.33;;;;;;;12.82;83.08;100280.72;5034338;28;20196;-63
2022/05/13 01:08:12;;;;;;;4.53;2.90;;;;;;;12.84;83.26;100281.47;5049395;28;20228;-61
2022/05/13 01:10:40;;;;;;;4.90;2.80;;;;;;;12.79;83.63;100276.59;5028707;28;20252;-62
2022/05/13 01:13:10;;;;;;;6.57;3.00;;;;;;;12.72;82.89;100278.69;5037365;28;20743;-63
2022/05/13 01:15:39;;;;;;;4.27;2.03;;;;;;;12.69;83.52;100278.91;5053960;28;20177;-63
2022/05/13 01:18:05;;;;;;;4.87;2.43;;;;;;;12.71;83.47;100279.66;5052456;28;20667;-62
2022/05/13 01:20:48;;;;;;;3.33;2.43;;;;;;;12.63;82.92;100286.16;5043602;28;20256;-61
2022/05/13 01:23:17;;;;;;;5.20;2.80;;;;;;;12.68;83.53;100287.56;5053292;28;20177;-62
2022/05/13 01:25:46;;;;;;;4.87;2.37;;;;;;;12.63;83.95;100287.00;5053909;28;20616;-61
2022/05/13 01:28:18;;;;;;;3.90;2.33;;;;;;;12.54;84.50;100287.53;5053869;28;20180;-62
2022/05/13 01:30:50;;;;;;;5.17;2.70;;;;;;;12.57;84.98;100290.78;5039747;28;20224;-62
2022/05/13 01:33:36;;;;;;;5.07;2.63;;;;;;;12.48;85.32;100286.19;5042747;28;20184;-61
2022/05/13 01:36:03;;;;;;;4.27;2.50;;;;;;;12.37;85.74;100291.16;5011422;28;20195;-63
2022/05/13 01:38:35;;;;;;;3.93;2.80;;;;;;;12.32;85.87;100288.84;4995400;28;20198;-62
2022/05/13 01:41:01;;;;;;;3.47;2.67;;;;;;;12.21;86.56;100294.63;5001555;28;20312;-62
2022/05/13 01:43:27;;;;;;;5.10;3.20;;;;;;;12.16;86.31;100293.25;5011877;28;20571;-62
2022/05/13 01:45:53;;;;;;;5.53;3.00;;;;;;;12.08;86.45;100291.94;5011649;28;20248;-62
2022/05/13 01:48:19;;;;;;;4.67;3.37;;;;;;;11.99;86.87;100297.59;4993842;28;20184;-62
2022/05/13 01:50:45;;;;;;;5.87;3.23;;;;;;;12.03;86.94;100298.25;5007425;28;20261;-61
2022/05/13 01:53:11;;;;;;;4.80;3.30;;;;;;;11.92;87.58;100298.81;5005575;28;20229;-62
2022/05/13 01:55:39;;;;;;;4.87;2.60;;;;;;;11.89;87.61;100299.84;5011413;28;20703;-61
2022/05/13 01:58:04;;;;;;;4.30;3.10;;;;;;;11.86;87.96;100304.38;5011325;28;20640;-60
2022/05/13 02:00:30;;;;;;;7.40;3.67;;;;;;;11.75;88.34;100295.47;5005235;28;20270;-61
2022/05/13 02:05:39;;;;;;;5.00;3.10;;;;;;;11.72;89.62;100290.50;5011278;28;20252;-61
2022/05/13 02:08:05;;;;;;;3.57;2.90;;;;;;;11.81;88.90;100293.47;5010849;28;20173;-61
2022/05/13 02:10:30;;;;;;;5.00;3.03;;;;;;;11.59;90.08;100295.50;5004642;28;20751;-61
2022/05/13 02:12:56;;;;;;;8.10;3.33;;;;;;;11.65;90.86;100299.50;5037359;28;20205;-61
2022/05/13 02:15:21;;;;;;;4.57;3.50;;;;;;;11.66;90.96;100303.72;5051726;28;20213;-61
2022/05/13 02:17:47;;;;;;;3.93;3.10;;;;;;;11.72;90.28;100305.13;5052380;28;20630;-62
2022/05/13 02:20:13;;;;;;;3.23;2.90;;;;;;;11.65;90.94;100314.94;5042715;28;20660;-62
2022/05/13 02:22:38;;;;;;;3.80;3.40;;;;;;;11.53;92.02;100311.28;5051792;28;20170;-61
2022/05/13 02:25:05;;;;;;;6.83;3.20;;;;;;;11.39;93.15;100306.09;5052911;28;20185;-62
2022/05/13 02:27:30;;;;;;;3.70;3.07;;;;;;;11.35;94.83;100307.16;5050287;28;20181;-61
2022/05/13 02:29:55;;;;;;;6.37;3.47;;;;;;;11.36;95.18;100309.66;5052741;28;20178;-62
2022/05/13 02:32:21;;;;;;;4.47;3.23;;;;;;;11.29;95.43;100303.19;5040784;28;20231;-61
2022/05/13 02:34:46;;;;;;;5.90;3.20;;;;;;;11.37;95.85;100303.56;5052943;28;20173;-61
2022/05/13 02:37:12;;;;;;;6.70;3.20;;;;;;;11.45;95.43;100298.84;5052212;28;20179;-62
2022/05/13 02:39:37;;;;;;;3.40;3.10;;;;;;;11.48;94.71;100302.19;5052617;28;20550;-62
2022/05/13 02:42:03;;;;;;;4.77;3.27;;;;;;;11.53;94.36;100306.16;5057520;28;20307;-62
2022/05/13 02:44:28;;;;;;;4.43;3.07;;;;;;;11.52;94.38;100298.50;5052730;28;20647;-62
2022/05/13 02:46:53;;;;;;;6.13;3.40;;;;;;;11.43;94.61;100307.56;5045503;28;20264;-61
2022/05/13 02:49:19;;;;;;;3.63;3.33;;;;;;;11.48;94.67;100303.00;5040459;28;20665;-61
2022/05/13 02:51:48;;;;;;;5.20;3.43;;;;;;;11.43;94.88;100307.56;5021218;28;20230;-62
2022/05/13 02:54:15;;;;;;;6.13;3.43;;;;;;;11.50;94.72;100306.31;5014488;28;20198;-61
2022/05/13 02:56:40;;;;;;;4.90;3.17;;;;;;;11.49;94.70;100312.38;5012325;28;20175;-62
2022/05/13 02:59:06;;;;;;;6.77;3.67;;;;;;;11.52;94.57;100304.47;5012792;28;20181;-61
2022/05/13 03:01:35;;;;;;;4.57;2.97;;;;;;;11.55;94.08;100306.91;5015071;28;20217;-62
2022/05/13 03:04:00;;;;;;;5.13;3.13;;;;;;;11.58;93.69;100303.31;5064531;28;20177;-62
2022/05/13 03:06:26;;;;;;;6.27;3.20;;;;;;;11.50;94.02;100306.31;5031875;28;20197;-61
2022/05/13 03:08:52;;;;;;;4.43;3.10;;;;;;;11.56;94.19;100305.13;5032441;28;20310;-62
2022/05/13 03:11:18;;;;;;;3.73;2.57;;;;;;;11.52;94.01;100306.22;5033942;28;20286;-62
2022/05/13 03:13:44;;;;;;;4.27;3.03;;;;;;;11.50;94.15;100310.63;5053941;28;20211;-62
2022/05/13 03:16:18;;;;;;;4.23;3.20;;;;;;;11.39;95.27;100311.25;5051764;28;20239;-62
2022/05/13 03:18:44;;;;;;;6.80;2.97;;;;;;;11.31;96.37;100311.63;5064056;28;20177;-61
2022/05/13 03:21:10;;;;;;;6.67;2.83;;;;;;;11.38;96.48;100312.16;5039966;28;20593;-61
2022/05/13 03:23:35;;;;;;;5.77;2.97;;;;;;;11.38;96.61;100310.38;5060075;28;20264;-62
2022/05/13 03:26:01;;;;;;;3.23;2.87;;;;;;;11.33;96.38;100309.00;5051712;28;20208;-62
2022/05/13 03:28:26;;;;;;;3.50;3.20;;;;;;;11.34;96.26;100310.63;5051743;28;20174;-62
2022/05/13 03:30:52;;;;;;;5.77;3.00;;;;;;;11.29;96.61;100314.31;5015767;28;20402;-61
2022/05/13 03:33:18;;;;;;;4.13;3.03;;;;;;;11.22;96.31;100312.16;5040708;28;20629;-61
2022/05/13 03:35:44;;;;;;;2.93;2.73;;;;;;;11.17;96.75;100312.38;5051736;28;20180;-61
2022/05/13 03:38:09;;;;;;;7.03;2.50;;;;;;;11.20;96.67;100313.97;5051812;28;20169;-62
2022/05/13 03:40:36;;;;;;;6.67;2.60;;;;;;;11.23;96.78;100316.38;5049016;28;20620;-61
2022/05/13 03:43:03;;;;;;;4.37;2.70;;;;;;;11.22;96.73;100314.72;5067129;28;20581;-61
2022/05/13 03:45:30;;;;;;;3.17;2.80;;;;;;;11.23;96.25;100316.38;5043844;28;20281;-61
2022/05/13 03:47:55;;;;;;;2.80;2.37;;;;;;;11.22;95.88;100312.97;5055607;28;20501;-61
2022/05/13 03:50:21;;;;;;;4.33;2.53;;;;;;;11.28;95.15;100322.13;5050500;28;20227;-60
2022/05/13 03:52:46;;;;;;;3.93;2.50;;;;;;;11.20;95.22;100317.38;5068686;28;20162;-62
2022/05/13 03:55:12;;;;;;;4.97;2.83;;;;;;;11.31;94.10;100314.22;5056025;28;20647;-62
2022/05/13 03:57:37;;;;;;;3.83;2.53;;;;;;;11.35;93.75;100313.16;5070306;28;20633;-62
2022/05/13 04:00:04;;;;;;;6.63;2.40;;;;;;;11.41;93.25;100317.97;5049330;28;20173;-62
2022/05/13 04:02:30;;;;;;;3.37;2.43;;;;;;;11.47;92.48;100319.34;5070427;28;20272;-61
2022/05/13 04:10:24;;;;;;;4.73;2.80;;;;;;;11.72;90.01;100324.00;5050966;28;20230;-61
2022/05/13 04:18:17;;;;;;;2.77;2.20;;;;;;;12.04;86.76;100316.22;5054430;28;20539;-61
2022/05/13 04:20:43;;;;;;;3.73;2.07;;;;;;;12.10;86.46;100320.19;5049755;28;20230;-62
2022/05/13 04:23:08;;;;;;;6.57;2.23;;;;;;;12.24;85.47;100315.09;5065683;28;20174;-61
2022/05/13 04:25:33;;;;;;;6.20;2.63;;;;;;;12.34;84.89;100306.78;5070323;28;20214;-61
2022/05/13 04:27:59;;;;;;;6.30;2.30;;;;;;;12.40;84.84;100306.44;5053087;28;20536;-62
2022/05/13 04:30:24;;;;;;;4.23;2.10;;;;;;;12.58;83.79;100317.44;5047541;28;20246;-61
2022/05/13 04:32:49;;;;;;;3.27;2.17;;;;;;;12.67;83.38;100318.63;5070292;28;20181;-62
2022/05/13 04:35:16;;;;;;;3.37;2.00;;;;;;;12.77;81.56;100313.75;5051864;28;20298;-71
2022/05/13 04:37:42;;;;;;;6.23;2.00;;;;;;;12.88;80.44;100314.75;5047543;28;20267;-71
2022/05/13 04:40:07;;;;;;;3.93;2.10;;;;;;;13.08;78.72;100313.53;5056670;28;20268;-70
2022/05/13 04:42:51;;;;;;;4.47;2.20;;;;;;;13.06;78.48;100317.97;5056054;28;20186;-70
2022/05/13 04:45:26;;;;;;;5.60;1.80;;;;;;;12.89;79.04;100331.91;5025296;28;20193;-71
2022/05/13 04:50:37;;;;;;;2.93;2.00;;;;;;;12.92;79.19;100330.88;5017356;28;20251;-70
2022/05/13 04:53:04;;;;;;;6.17;2.33;;;;;;;12.89;79.00;100343.97;5044425;28;20629;-70
2022/05/13 04:55:29;;;;;;;9.30;2.30;;;;;;;12.81;79.52;100347.00;5049070;28;20268;-70
2022/05/13 04:57:54;;;;;;;3.87;1.97;;;;;;;12.85;79.96;100357.97;5033497;28;20319;-69
2022/05/13 05:00:20;;;;;;;6.23;2.67;;;;;;;13.08;79.50;100359.19;5028271;28;20525;-68
2022/05/13 05:02:45;;;;;;;5.87;1.80;;;;;;;13.15;78.41;100368.22;5051516;28;20192;-69
2022/05/13 05:05:11;;;;;;;3.53;1.77;;;;;;;13.28;77.61;100372.63;5065685;28;20633;-70
2022/05/13 05:07:36;;;;;;;3.53;2.43;;;;;;;13.48;76.91;100377.44;5052944;28;20174;-70
2022/05/13 05:10:02;;;;;;;6.23;2.27;;;;;;;13.57;75.97;100378.63;5053319;28;20260;-70
2022/05/13 05:12:28;;;;;;;7.20;1.90;;;;;;;13.78;75.38;100384.19;5075054;28;20300;-70
2022/05/13 05:14:53;;;;;;;3.00;1.90;;;;;;;14.15;74.30;100393.91;5053613;28;20696;-69
2022/05/13 05:17:18;;;;;;;4.97;1.80;;;;;;;14.35;73.75;100390.00;5051594;28;20655;-69
2022/05/13 05:19:44;;;;;;;4.30;2.03;;;;;;;14.32;72.97;100393.63;5053215;28;20315;-69
2022/05/13 05:22:09;;;;;;;5.80;2.10;;;;;;;14.55;74.14;100393.03;5058506;28;20723;-68
2022/05/13 05:24:34;;;;;;;2.53;1.50;;;;;;;14.53;73.51;100388.78;5053248;28;20180;-68
2022/05/13 05:27:00;;;;;;;5.60;1.67;;;;;;;14.71;73.37;100396.31;5051270;28;20205;-69
2022/05/13 05:29:25;;;;;;;4.57;2.10;;;;;;;14.67;72.54;100395.69;5053137;28;20181;-69
2022/05/13 05:31:50;;;;;;;4.73;2.23;;;;;;;14.93;71.24;100403.44;5056550;28;20365;-69
2022/05/13 05:34:19;;;;;;;2.00;1.60;;;;;;;15.21;69.65;100398.97;5051870;28;20636;-67
2022/05/13 05:36:44;;;;;;;3.73;1.60;;;;;;;15.11;69.28;100405.72;5052626;28;20292;-67
2022/05/13 05:39:10;;;;;;;1.83;1.50;;;;;;;15.20;68.35;100406.84;5050074;28;20261;-69
2022/05/13 05:41:36;;;;;;;4.77;2.10;;;;;;;15.36;68.80;100406.63;5058494;28;20238;-69
2022/05/13 05:44:01;;;;;;;2.43;1.50;;;;;;;15.55;66.38;100409.56;5055054;28;20174;-68
2022/05/13 05:46:27;;;;;;;2.97;1.70;;;;;;;15.60;66.28;100409.25;5067793;28;20209;-68
2022/05/13 05:48:52;;;;;;;3.47;1.97;;;;;;;15.82;65.53;100417.16;5052712;28;20271;-67
2022/05/13 05:51:17;;;;;;;4.90;1.90;;;;;;;15.79;66.03;100407.00;5062360;28;20228;-67
2022/05/13 05:59:11;;;;;;;4.97;2.07;;;;;;;16.24;61.63;100428.94;5052719;28;20595;-68
2022/05/13 06:01:36;;;;;;;5.10;1.50;;;;;;;16.06;61.49;100433.69;5073040;28;20232;-68
2022/05/13 06:04:02;;;;;;;2.13;1.50;;;;;;;16.30;60.70;100439.69;5059175;28;20209;-69
2022/05/13 06:06:27;;;;;;;5.10;1.63;;;;;;;16.21;60.80;100444.72;5067176;28;20205;-69
2022/05/13 06:08:57;;;;;;;2.10;1.43;;;;;;;16.28;61.78;100451.94;5067294;28;20180;-68
2022/05/13 06:11:23;;;;;;;3.30;1.47;;;;;;;16.25;61.55;100454.78;5071017;28;20231;-68
2022/05/13 06:13:54;;;;;;;5.07;1.70;;;;;;;16.20;61.97;100453.44;5061773;28;20201;-68
2022/05/13 06:16:25;;;;;;;6.20;1.40;;;;;;;16.38;58.76;100456.47;5051170;28;20225;-68
2022/05/13 06:18:50;;;;;;;5.60;1.43;;;;;;;16.48;57.97;100456.63;5051820;28;20230;-69
2022/05/13 06:21:16;;;;;;;6.67;1.90;;;;;;;16.39;56.78;100452.94;5051007;28;20236;-68
2022/05/13 06:23:41;;;;;;;7.00;1.87;;;;;;;16.74;55.49;100465.88;5057448;28;20170;-69
2022/05/13 06:26:06;;;;;;;4.93;2.00;;;;;;;16.83;54.39;100455.75;5049855;28;20216;-70
2022/05/13 06:28:32;;;;;;;6.77;1.67;;;;;;;16.76;53.89;100453.63;5051615;28;20201;-69
2022/05/13 06:30:57;;;;;;;3.83;1.70;;;;;;;16.93;52.62;100454.13;5048498;28;20581;-69
2022/05/13 06:33:23;;;;;;;3.53;1.70;;;;;;;17.23;52.48;100456.19;5060308;28;20279;-69
2022/05/13 06:35:49;;;;;;;5.47;1.43;;;;;;;17.39;51.37;100454.97;5047086;28;20244;-69
2022/05/13 06:38:22;;;;;;;4.47;1.53;;;;;;;18.07;49.71;100467.88;5034537;28;20281;-68
2022/05/13 06:40:53;;;;;;;5.40;1.63;;;;;;;18.97;47.58;100464.03;5048814;28;20212;-69
2022/05/13 06:43:19;;;;;;;4.73;1.53;;;;;;;20.26;44.54;100466.03;5066353;28;20346;-70
2022/05/13 06:45:44;;;;;;;4.87;2.17;;;;;;;19.81;43.66;100467.34;5031759;28;20208;-67
2022/05/13 06:48:10;;;;;;;3.40;1.50;;;;;;;19.24;44.67;100464.41;5029151;28;20186;-62
2022/05/13 06:50:37;;;;;;;5.50;1.43;;;;;;;19.23;45.53;100468.00;5046355;28;20223;-65
2022/05/13 06:53:03;;;;;;;8.43;1.70;;;;;;;19.34;45.55;100467.91;5048045;28;20256;-66
2022/05/13 06:55:29;;;;;;;5.87;1.60;;;;;;;19.08;46.36;100470.94;5030679;28;20178;-65
2022/05/13 06:57:55;;;;;;;3.33;1.40;;;;;;;18.84;46.11;100474.66;5047202;28;20209;-66
2022/05/13 07:00:20;;;;;;;4.07;1.23;;;;;;;18.42;45.33;100468.59;5012951;28;20205;-64
2022/05/13 07:02:46;;;;;;;4.03;1.60;;;;;;;18.37;44.79;100480.22;5042642;28;20192;-65
2022/05/13 07:05:13;;;;;;;4.83;1.03;;;;;;;19.40;42.93;100477.81;5032478;28;20265;-65
2022/05/13 07:07:39;;;;;;;5.00;1.10;;;;;;;19.97;40.25;100472.91;5030790;28;20197;-66
2022/05/13 07:10:06;;;;;;;3.63;1.40;;;;;;;21.28;38.09;100464.59;5024707;28;20182;-65
2022/05/13 07:12:31;;;;;;;4.50;1.40;;;;;;;21.02;36.53;100473.06;5062545;28;20281;-66
2022/05/13 07:14:57;;;;;;;8.67;1.60;;;;;;;21.43;36.94;100473.63;5034371;28;20281;-65
2022/05/13 07:17:22;;;;;;;7.07;1.60;;;;;;;22.43;35.13;100464.97;5056582;28;20236;-64
2022/05/13 07:19:47;;;;;;;3.17;1.10;;;;;;;22.64;34.25;100475.09;5051840;28;20185;-65
2022/05/13 07:22:13;;;;;;;2.77;1.17;;;;;;;23.59;32.62;100462.94;5057023;28;20311;-63
2022/05/13 07:24:38;;;;;;;5.90;1.37;;;;;;;23.80;31.79;100475.63;5038133;28;20198;-64
2022/05/13 07:27:05;;;;;;;5.10;1.20;;;;;;;22.85;33.01;100479.19;5031098;28;20229;-63
2022/05/13 07:29:30;;;;;;;4.15;1.35;;;;;;;23.25;32.83;100482.22;5051312;28;20665;-66
2022/05/13 07:31:56;;;;;;;3.78;1.08;;;;;;;23.40;31.73;100485.06;5016063;28;20307;-63
2022/05/13 07:34:22;;;;;;;3.13;1.20;;;;;;;22.48;32.31;100490.72;5024008;28;20218;-64
2022/05/13 07:36:48;;;;;;;1.87;1.10;;;;;;;23.28;32.22;100485.34;5014973;28;20179;-64
2022/05/13 07:41:58;;;;;;;7.20;1.20;;;;;;;23.25;32.96;100496.13;5048556;28;20270;-65
2022/05/13 07:44:24;;;;;;;4.28;1.30;;;;;;;23.64;30.64;100492.19;5052637;28;20181;-63
2022/05/13 07:46:51;;;;;;;4.82;1.52;;;;;;;23.16;31.11;100503.16;5044177;28;20937;-64
2022/05/13 07:49:16;;;;;;;4.22;1.13;;;;;;;23.42;31.66;100501.44;5032703;28;20182;-64
2022/05/13 07:51:42;;;;;;;1.88;1.00;;;;;;;24.17;30.40;100501.53;5036737;28;20228;-65
2022/05/13 07:54:07;;;;;;;4.22;1.50;;;;;;;25.00;30.21;100500.66;5044558;28;20554;-64
2022/05/13 07:56:33;;;;;;;3.20;1.33;;;;;;;25.68;28.78;100493.16;5031484;28;20328;-65
2022/05/13 07:59:00;;;;;;;4.75;1.40;;;;;;;26.53;27.33;100500.16;5032051;28;20633;-64
2022/05/13 08:01:26;;;;;;;4.07;1.40;;;;;;;25.61;28.20;100500.91;5036981;28;20270;-65
2022/05/13 08:03:51;;;;;;;3.38;1.50;;;;;;;24.90;29.19;100509.53;5041006;28;20271;-64
2022/05/13 08:06:17;;;;;;;4.88;1.20;;;;;;;25.22;29.10;100502.53;5030402;28;20575;-65
2022/05/13 08:08:45;;;;;;;3.20;1.20;;;;;;;25.77;28.26;100511.34;5031107;28;20186;-63
2022/05/13 08:11:14;;;;;;;3.33;1.48;;;;;;;27.16;25.84;100504.31;5032300;28;20285;-63
2022/05/13 08:13:40;;;;;;;5.10;1.38;;;;;;;26.56;27.46;100510.31;5045497;28;20228;-65
2022/05/13 08:16:13;;;;;;;2.83;1.30;;;;;;;25.79;27.14;100513.84;5049563;28;20225;-64
2022/05/13 08:18:40;;;;;;;3.15;1.27;;;;;;;26.01;27.49;100511.38;5066595;28;20188;-64
2022/05/13 08:21:05;;;;;;;4.70;1.40;;;;;;;25.52;28.25;100517.78;5044044;28;20221;-66
2022/05/13 08:23:31;;;;;;;5.13;1.20;;;;;;;27.08;26.47;100517.59;5038546;28;20180;-64
2022/05/13 08:25:56;;;;;;;1.83;0.93;;;;;;;26.45;26.38;100502.84;5033562;28;20202;-65
2022/05/13 08:28:23;;;;;;;3.05;1.30;;;;;;;26.65;26.63;100512.91;5038755;28;20257;-65
2022/05/13 08:30:49;;;;;;;4.40;1.40;;;;;;;25.55;26.96;100523.53;5051967;28;20228;-65
2022/05/13 08:33:14;;;;;;;7.80;1.60;;;;;;;24.96;28.49;100513.31;5057625;28;20278;-63
2022/05/13 08:35:49;;;;;;;4.22;1.40;;;;;;;26.08;26.31;100523.72;5052512;28;20213;-63
2022/05/13 08:38:17;;;;;;;2.45;1.25;;;;;;;25.39;26.13;100531.47;5053927;28;20181;-64
2022/05/13 08:40:49;;;;;;;2.25;1.05;;;;;;;25.83;25.22;100517.75;5031912;28;20229;-64
2022/05/13 08:43:18;;;;;;;4.00;1.00;;;;;;;25.49;26.78;100516.31;5055141;28;20181;-64
2022/05/13 08:45:54;;;;;;;2.58;1.13;;;;;;;26.20;25.88;100513.59;5036453;28;20197;-64
2022/05/13 08:48:30;;;;;;;2.47;1.73;;;;;;;27.00;25.19;100526.41;5055189;28;20701;-64
2022/05/13 08:51:18;;;;;;;6.85;1.90;;;;;;;27.36;23.27;100530.97;5052289;28;20641;-65
2022/05/13 08:53:57;;;;;;;2.88;1.25;;;;;;;26.63;25.35;100530.72;5053249;28;20185;-64
2022/05/13 08:56:27;;;;;;;4.60;1.50;;;;;;;25.89;26.08;100530.25;5054135;28;20277;-65
2022/05/13 08:59:11;;;;;;;2.60;1.10;;;;;;;27.11;24.15;100525.97;5042143;28;20197;-64
2022/05/13 09:01:45;;;;;;;2.75;1.08;;;;;;;27.14;24.23;100522.13;5038206;28;20221;-64
2022/05/13 09:04:26;;;;;;;4.43;1.23;;;;;;;27.08;25.14;100518.44;5033513;28;20641;-64
2022/05/13 09:06:59;;;;;;;3.08;1.45;;;;;;;27.61;23.59;100531.53;5032523;28;20244;-65
2022/05/13 09:09:24;;;;;;;3.33;1.17;;;;;;;28.13;22.38;100532.28;5033370;28;20189;-65
2022/05/13 09:12:00;;;;;;;5.10;1.13;;;;;;;27.88;22.31;100539.72;5037930;28;20229;-63
2022/05/13 09:14:43;;;;;;;2.47;1.10;;;;;;;27.77;22.83;100542.84;5050490;28;20208;-64
2022/05/13 09:17:33;;;;;;;6.32;1.60;;;;;;;27.89;22.40;100551.94;5052379;28;20221;-64
2022/05/13 09:20:11;;;;;;;2.28;0.80;;;;;;;28.89;19.95;100546.75;5032820;28;20206;-64
2022/05/13 09:22:44;;;;;;;2.53;1.00;;;;;;;29.03;21.12;100545.00;5021660;28;20217;-64
2022/05/13 09:25:19;;;;;;;2.20;1.05;;;;;;;29.06;21.54;100539.34;5034348;28;20205;-64
2022/05/13 09:27:48;;;;;;;2.60;1.10;;;;;;;29.61;20.90;100541.22;5033379;28;20617;-64
2022/05/13 09:30:18;;;;;;;2.63;1.23;;;;;;;28.48;22.09;100535.03;5025159;28;20677;-64
2022/05/13 09:32:43;;;;;;;4.47;1.30;;;;;;;28.46;21.53;100539.69;5027298;28;20210;-63
2022/05/13 09:35:29;;;;;;;4.28;1.60;;;;;;;28.93;22.13;100537.41;5013916;28;20530;-64
2022/05/13 09:37:55;;;;;;;2.47;1.20;;;;;;;27.96;23.41;100539.63;5015534;28;20629;-65
2022/05/13 09:40:26;;;;;;;1.80;0.88;;;;;;;28.08;22.83;100533.84;5010987;28;20182;-64
2022/05/13 09:42:55;;;;;;;2.67;0.90;;;;;;;27.13;24.10;100531.91;5045670;28;20170;-64
2022/05/13 09:45:33;;;;;;;2.40;0.82;;;;;;;26.77;24.32;100527.31;5032129;28;20200;-65
2022/05/13 09:48:05;;;;;;;1.48;0.88;;;;;;;25.83;25.54;100519.59;5031597;28;20268;-64
2022/05/13 09:50:34;;;;;;;2.25;1.48;;;;;;;26.35;25.01;100511.00;5033388;28;20304;-64
2022/05/13 09:53:07;;;;;;;2.95;0.95;;;;;;;25.94;24.81;100519.19;5046321;28;20338;-64
2022/05/13 09:55:38;;;;;;;3.97;1.17;;;;;;;25.74;26.09;100518.81;5031206;28;20641;-64
2022/05/13 09:58:09;;;;;;;2.40;1.00;;;;;;;26.24;25.10;100514.06;5033657;28;20174;-63
2022/05/13 10:00:40;;;;;;;3.58;1.13;;;;;;;25.82;26.46;100513.47;5045326;28;20286;-63
2022/05/13 10:03:27;;;;;;;3.63;1.08;;;;;;;25.43;26.45;100519.63;5054583;28;20542;-62
2022/05/13 10:06:17;;;;;;;2.40;1.50;;;;;;;24.38;27.32;100509.91;5031415;28;20591;-63
2022/05/13 10:08:48;;;;;;;3.60;1.02;;;;;;;24.31;27.36;100505.31;5033078;28;20240;-63
2022/05/13 10:14:07;;;;;;;3.58;1.30;;;;;;;26.56;24.49;100498.97;5051740;28;20298;-63
2022/05/13 10:16:45;;;;;;;3.75;1.17;;;;;;;26.80;24.50;100505.84;5051113;28;20232;-62
2022/05/13 10:19:21;;;;;;;5.57;1.30;;;;;;;26.41;24.50;100505.03;5045743;28;20628;-63
2022/05/13 10:22:24;;;;;;;2.55;1.05;;;;;;;24.43;25.93;100505.78;5040676;28;20257;-63
2022/05/13 10:25:00;;;;;;;3.28;1.27;;;;;;;22.70;29.39;100507.78;5023921;28;20193;-62
2022/05/13 10:27:30;;;;;;;3.45;1.20;;;;;;;23.93;29.21;100510.19;5034099;28;20213;-64
2022/05/13 10:30:02;;;;;;;2.85;0.77;;;;;;;25.50;26.52;100511.84;5041844;28;20194;-65
2022/05/13 10:32:44;;;;;;;1.25;1.00;;;;;;;25.71;25.63;100509.44;5024518;28;20221;-63
2022/05/13 10:35:15;;;;;;;5.10;1.35;;;;;;;26.51;25.44;100501.31;5050337;28;20192;-64
2022/05/13 10:38:07;;;;;;;2.83;1.10;;;;;;;27.54;23.84;100505.00;5035489;28;20186;-64
2022/05/13 10:40:40;;;;;;;3.65;1.25;;;;;;;25.72;25.86;100512.88;5027461;28;20307;-64
2022/05/13 10:43:22;;;;;;;3.47;1.45;;;;;;;24.40;26.60;100510.53;5058142;28;20212;-64
2022/05/13 10:45:51;;;;;;;3.70;1.15;;;;;;;24.56;28.22;100518.44;5030733;28;20198;-65
2022/05/13 10:48:27;;;;;;;2.60;1.40;;;;;;;23.89;29.52;100511.47;5037934;28;20183;-65
2022/05/13 10:51:27;;;;;;;3.55;1.48;;;;;;;22.78;29.18;100509.63;5033364;28;20224;-63
2022/05/13 10:54:20;;;;;;;3.17;1.27;;;;;;;21.76;31.90;100501.97;5045483;28;20181;-64
2022/05/13 10:57:01;;;;;;;2.50;1.40;;;;;;;21.84;32.47;100496.81;5067090;28;20775;-64
2022/05/13 10:59:49;;;;;;;2.83;1.50;;;;;;;21.85;32.70;100500.28;5033141;28;20269;-65
2022/05/13 11:02:52;;;;;;;2.77;1.50;;;;;;;21.86;31.98;100489.66;5027822;28;20220;-65
2022/05/13 11:05:58;;;;;;;4.23;1.40;;;;;;;21.50;32.01;100491.34;5032151;28;20185;-65
2022/05/13 11:08:35;;;;;;;2.40;1.00;;;;;;;21.55;32.20;100487.31;4968301;28;20189;-66
2022/05/13 11:11:15;;;;;;;2.53;1.10;;;;;;;21.51;33.42;100491.19;5047505;28;20231;-65
2022/05/13 11:13:53;;;;;;;4.83;1.10;;;;;;;21.28;32.71;100475.88;5047080;28;20235;-65
2022/05/13 11:16:28;;;;;;;3.03;1.30;;;;;;;21.38;35.89;100482.84;5038792;28;20224;-65
2022/05/13 11:19:06;;;;;;;2.10;1.20;;;;;;;21.33;33.42;100483.28;5049994;28;20199;-65
2022/05/13 11:21:57;;;;;;;3.67;1.17;;;;;;;21.43;33.09;100484.09;5052929;28;20228;-63
2022/05/13 11:27:43;;;;;;;5.10;1.40;;;;;;;21.09;33.23;100479.38;5050325;28;20223;-64
2022/05/13 11:30:11;;;;;;;2.57;1.13;;;;;;;21.56;33.30;100472.47;5021274;28;20173;-63
2022/05/13 11:32:46;;;;;;;1.53;1.13;;;;;;;21.73;33.68;100468.22;5066417;28;20188;-63
2022/05/13 11:35:38;;;;;;;2.20;1.17;;;;;;;21.68;33.04;100473.09;5051834;28;20200;-63
2022/05/13 11:38:12;;;;;;;4.60;1.57;;;;;;;21.28;32.83;100475.03;5031724;28;20190;-64
2022/05/13 11:40:46;;;;;;;2.77;1.30;;;;;;;21.55;33.28;100461.13;5029002;28;20600;-64
2022/05/13 11:43:46;;;;;;;4.13;1.20;;;;;;;21.31;33.76;100482.63;5041942;28;20558;-64
2022/05/13 11:46:46;;;;;;;4.30;1.20;;;;;;;21.40;32.80;100479.13;5034532;28;20653;-63
2022/05/13 11:49:23;;;;;;;3.53;1.37;;;;;;;21.57;32.57;100474.94;5033402;28;20183;-63
2022/05/13 11:51:49;;;;;;;5.27;1.60;;;;;;;21.04;33.23;100472.94;5054817;28;20648;-64
2022/05/13 11:54:28;;;;;;;1.90;1.13;;;;;;;20.86;32.99;100471.06;5036765;28;20193;-63
2022/05/13 11:57:23;;;;;;;2.97;1.20;;;;;;;21.08;34.11;100463.84;5046763;28;20178;-63
2022/05/13 11:59:50;;;;;;;2.03;1.00;;;;;;;21.19;33.44;100458.44;5030255;28;20673;-64
2022/05/13 12:02:32;;;;;;;5.80;1.40;;;;;;;21.21;33.64;100459.13;5041924;28;20373;-64
2022/05/13 12:05:27;;;;;;;3.73;0.83;;;;;;;21.42;33.57;100469.34;5053030;28;20513;-64
2022/05/13 12:08:08;;;;;;;3.87;1.40;;;;;;;21.59;33.87;100464.31;5036342;28;20290;-64